Time;durP1;ratioP1;P1;durP2;ratioP2;P2;SDS_P1;SDS_P2;PMS_P1;PMS_P2;Temp;Humidity;BMP_temperature;BMP_pressure;BME280_temperature;BME280_humidity;BME280_pressure;Samples;Min_cycle;Max_cycle;Signal;HPM_P1;HPM_P2
2023/12/06 00:02:10;;;;;;;1.75;1.50;;;3.90;99.90;;;;;;5025187;28;20040;-72
2023/12/06 00:04:36;;;;;;;1.98;1.08;;;3.90;99.90;;;;;;5023090;28;20033;-73
2023/12/06 00:07:02;;;;;;;5.03;1.95;;;4.00;99.90;;;;;;5016753;28;20025;-73
2023/12/06 00:09:27;;;;;;;13.30;2.22;;;3.90;99.90;;;;;;5031635;28;20025;-73
2023/12/06 00:11:53;;;;;;;1.10;1.00;;;3.90;99.90;;;;;;5014608;28;20029;-73
2023/12/06 00:14:18;;;;;;;1.52;1.02;;;3.80;99.90;;;;;;5031873;28;20029;-73
2023/12/06 00:16:44;;;;;;;1.45;1.13;;;3.70;99.90;;;;;;5018508;28;20760;-73
2023/12/06 00:19:10;;;;;;;3.53;3.22;;;3.60;99.90;;;;;;5026279;28;20063;-73
2023/12/06 00:21:35;;;;;;;3.45;1.95;;;3.70;99.90;;;;;;5023574;28;20028;-73
2023/12/06 00:24:01;;;;;;;1.38;1.27;;;3.60;99.90;;;;;;5028716;28;20037;-73
2023/12/06 00:26:26;;;;;;;1.50;1.27;;;3.60;99.90;;;;;;5014933;28;20033;-72
2023/12/06 00:28:53;;;;;;;1.83;1.45;;;3.50;99.90;;;;;;5035009;28;20083;-73
2023/12/06 00:31:19;;;;;;;2.25;1.08;;;3.40;99.90;;;;;;5021329;28;20063;-71
2023/12/06 00:33:44;;;;;;;2.00;1.48;;;3.30;99.90;;;;;;5031943;28;20033;-72
2023/12/06 00:36:10;;;;;;;1.52;1.42;;;3.20;99.90;;;;;;5018679;28;20033;-73
2023/12/06 00:38:36;;;;;;;2.67;1.70;;;3.30;99.90;;;;;;5028569;28;20056;-72
2023/12/06 00:41:01;;;;;;;2.15;1.73;;;3.20;99.90;;;;;;5024145;28;20034;-72
2023/12/06 00:43:27;;;;;;;1.95;1.40;;;3.20;99.90;;;;;;5026015;28;20037;-73
2023/12/06 00:45:53;;;;;;;1.73;1.65;;;3.30;99.90;;;;;;5025614;28;20034;-73
2023/12/06 00:48:19;;;;;;;1.17;1.05;;;3.30;99.90;;;;;;5021514;28;20041;-73
2023/12/06 00:50:45;;;;;;;2.13;1.95;;;3.40;99.90;;;;;;5028525;28;20845;-72
2023/12/06 00:53:10;;;;;;;0.93;0.90;;;3.50;99.90;;;;;;5020365;28;20038;-73
2023/12/06 00:55:36;;;;;;;4.15;2.65;;;3.50;99.90;;;;;;5031327;28;20043;-72
2023/12/06 00:58:01;;;;;;;1.63;1.35;;;3.50;99.90;;;;;;5019397;28;20029;-73
2023/12/06 01:00:27;;;;;;;2.38;1.63;;;3.50;99.90;;;;;;5044426;28;20126;-72
2023/12/06 01:02:53;;;;;;;2.10;1.05;;;3.50;99.90;;;;;;5040825;28;20219;-72
2023/12/06 01:05:19;;;;;;;1.70;1.60;;;3.60;99.90;;;;;;5023399;28;21435;-72
2023/12/06 01:07:44;;;;;;;4.75;2.00;;;3.60;99.90;;;;;;5020741;28;20470;-73
2023/12/06 01:10:10;;;;;;;6.47;2.90;;;3.60;99.90;;;;;;5030791;28;20055;-73
2023/12/06 01:12:35;;;;;;;3.85;1.10;;;3.60;99.90;;;;;;5013658;28;20098;-73
2023/12/06 01:15:03;;;;;;;2.08;1.52;;;3.50;99.90;;;;;;5026773;28;21216;-73
2023/12/06 01:17:29;;;;;;;1.55;1.35;;;3.40;99.90;;;;;;5023980;28;20036;-73
2023/12/06 01:19:54;;;;;;;1.85;1.75;;;3.40;99.90;;;;;;5023422;28;20037;-73
2023/12/06 01:22:20;;;;;;;4.45;0.98;;;3.40;99.90;;;;;;5025457;28;20501;-73
2023/12/06 01:24:47;;;;;;;0.55;0.55;;;3.40;99.90;;;;;;5024902;28;20067;-73
2023/12/06 01:27:12;;;;;;;1.58;0.98;;;3.40;99.90;;;;;;5027841;28;20029;-73
2023/12/06 01:29:38;;;;;;;4.43;3.38;;;3.50;99.90;;;;;;5018878;28;20044;-73
2023/12/06 01:32:04;;;;;;;4.75;1.73;;;3.50;99.90;;;;;;5023546;28;20069;-73
2023/12/06 01:34:30;;;;;;;1.67;1.10;;;3.50;99.90;;;;;;5016152;28;20683;-72
2023/12/06 01:36:55;;;;;;;4.32;1.73;;;3.50;99.90;;;;;;5028865;28;20041;-73
2023/12/06 01:39:21;;;;;;;2.15;1.58;;;3.40;99.90;;;;;;5015493;28;20089;-73
2023/12/06 01:41:48;;;;;;;1.25;1.15;;;3.40;99.90;;;;;;5026758;28;20448;-73
2023/12/06 01:44:14;;;;;;;1.70;1.60;;;3.40;99.90;;;;;;5011321;28;20057;-73
2023/12/06 01:46:40;;;;;;;1.52;1.42;;;3.40;99.90;;;;;;5026294;28;20071;-72
2023/12/06 01:49:10;;;;;;;1.25;1.10;;;3.30;99.90;;;;;;5015658;28;20120;-72
2023/12/06 01:51:36;;;;;;;1.15;1.08;;;3.30;99.90;;;;;;5025901;28;20037;-71
2023/12/06 01:54:02;;;;;;;3.80;2.28;;;3.20;99.90;;;;;;5017737;28;20056;-72
2023/12/06 01:56:27;;;;;;;0.60;0.60;;;3.10;99.90;;;;;;5029222;28;20033;-71
2023/12/06 01:58:54;;;;;;;1.85;1.65;;;2.90;99.90;;;;;;5018062;28;20154;-72
2023/12/06 02:01:19;;;;;;;1.48;1.27;;;2.80;99.90;;;;;;5033715;28;20037;-70
2023/12/06 02:03:46;;;;;;;4.22;1.83;;;2.80;99.90;;;;;;5030109;28;20045;-71
2023/12/06 02:06:12;;;;;;;3.05;2.00;;;2.80;99.90;;;;;;5036026;28;20036;-71
2023/12/06 02:08:41;;;;;;;5.47;2.17;;;2.80;99.90;;;;;;5037250;28;20067;-71
2023/12/06 02:11:07;;;;;;;0.98;0.98;;;2.70;99.90;;;;;;5030052;28;20103;-73
2023/12/06 02:13:33;;;;;;;3.50;1.95;;;2.50;99.90;;;;;;5031857;28;20042;-71
2023/12/06 02:15:59;;;;;;;0.88;0.88;;;2.40;99.90;;;;;;5029697;28;20048;-71
2023/12/06 02:18:27;;;;;;;1.75;1.65;;;2.40;99.90;;;;;;5031794;28;20051;-72
2023/12/06 02:20:54;;;;;;;2.17;1.48;;;2.30;99.90;;;;;;5015203;28;20037;-72
2023/12/06 02:23:25;;;;;;;0.93;0.93;;;2.30;99.90;;;;;;5024337;28;20652;-71
2023/12/06 02:25:50;;;;;;;1.42;1.33;;;2.30;99.90;;;;;;5013642;28;20042;-72
2023/12/06 02:28:16;;;;;;;3.03;1.02;;;2.20;99.90;;;;;;5027663;28;20075;-72
2023/12/06 02:30:41;;;;;;;1.35;1.08;;;2.20;99.90;;;;;;5018834;28;20477;-72
2023/12/06 02:33:07;;;;;;;1.05;1.05;;;2.00;99.90;;;;;;5026425;28;20037;-72
2023/12/06 02:35:41;;;;;;;1.63;0.75;;;1.90;99.90;;;;;;5017413;28;20056;-72
2023/12/06 02:38:09;;;;;;;2.75;1.73;;;1.90;99.90;;;;;;5025249;28;20120;-71
2023/12/06 02:40:37;;;;;;;1.33;1.13;;;1.90;99.90;;;;;;5013171;28;20468;-72
2023/12/06 02:43:03;;;;;;;1.27;0.70;;;1.90;99.90;;;;;;5023990;28;20327;-72
2023/12/06 02:45:29;;;;;;;0.52;0.52;;;1.90;99.90;;;;;;5016956;28;20137;-73
2023/12/06 02:47:54;;;;;;;0.98;0.98;;;2.10;99.90;;;;;;5029859;28;20020;-74
2023/12/06 02:50:20;;;;;;;1.08;0.85;;;2.30;99.90;;;;;;5018572;28;20529;-71
2023/12/06 02:52:45;;;;;;;0.40;0.40;;;2.30;99.90;;;;;;5023192;28;20118;-72
2023/12/06 02:55:11;;;;;;;0.70;0.70;;;2.30;99.90;;;;;;5030954;28;20081;-73
2023/12/06 02:57:37;;;;;;;0.47;0.47;;;2.30;99.90;;;;;;5015498;28;20025;-72
2023/12/06 03:00:03;;;;;;;1.02;1.02;;;2.30;99.90;;;;;;5021950;28;20036;-73
2023/12/06 03:02:29;;;;;;;1.42;1.33;;;2.30;99.90;;;;;;5014073;28;20033;-72
2023/12/06 03:04:54;;;;;;;0.93;0.85;;;2.20;99.90;;;;;;5027207;28;20030;-72
2023/12/06 03:07:20;;;;;;;1.15;1.05;;;2.30;99.90;;;;;;5011580;28;20141;-73
2023/12/06 03:09:46;;;;;;;0.85;0.68;;;2.50;99.90;;;;;;5025412;28;20036;-72
2023/12/06 03:12:11;;;;;;;0.65;0.65;;;2.80;99.90;;;;;;5013056;28;20041;-72
2023/12/06 03:14:37;;;;;;;2.25;0.95;;;2.90;99.90;;;;;;5022496;28;20128;-72
2023/12/06 03:17:03;;;;;;;1.55;1.00;;;3.10;99.90;;;;;;5017768;28;20070;-72
2023/12/06 03:19:29;;;;;;;0.40;0.40;;;3.10;99.90;;;;;;5024027;28;20048;-73
2023/12/06 03:21:54;;;;;;;0.80;0.80;;;3.20;99.90;;;;;;5012029;28;20029;-73
2023/12/06 03:24:20;;;;;;;2.17;1.35;;;3.20;99.90;;;;;;5026470;28;20036;-73
2023/12/06 03:26:46;;;;;;;1.38;1.25;;;3.20;99.90;;;;;;5011756;28;20029;-73
2023/12/06 03:29:11;;;;;;;1.02;0.75;;;3.20;99.90;;;;;;5024549;28;21405;-73
2023/12/06 03:31:37;;;;;;;2.67;1.35;;;3.20;99.90;;;;;;5012421;28;20238;-73
2023/12/06 03:34:02;;;;;;;0.77;0.77;;;3.10;99.90;;;;;;5021981;28;21052;-73
2023/12/06 03:36:28;;;;;;;0.98;0.55;;;3.20;99.90;;;;;;5024510;28;20413;-73
2023/12/06 03:38:54;;;;;;;3.15;1.75;;;3.20;99.90;;;;;;5014070;28;20030;-73
2023/12/06 03:41:19;;;;;;;2.72;1.08;;;3.20;99.90;;;;;;5025797;28;20061;-72
2023/12/06 03:43:45;;;;;;;0.70;0.70;;;3.20;99.90;;;;;;5013742;28;20079;-72
2023/12/06 03:46:11;;;;;;;5.10;1.70;;;3.20;99.90;;;;;;5024339;28;20033;-72
2023/12/06 03:48:37;;;;;;;0.80;0.75;;;3.20;99.90;;;;;;5028528;28;20053;-72
2023/12/06 03:51:03;;;;;;;1.02;0.95;;;3.20;99.90;;;;;;5054510;28;20037;-72
2023/12/06 03:53:28;;;;;;;2.40;2.20;;;3.20;99.90;;;;;;5011087;28;20053;-72
2023/12/06 03:55:54;;;;;;;1.38;1.17;;;3.30;99.90;;;;;;5028389;28;20033;-72
2023/12/06 03:58:21;;;;;;;0.77;0.77;;;3.30;99.90;;;;;;5013966;28;20048;-72
2023/12/06 04:00:46;;;;;;;1.65;1.30;;;3.30;99.90;;;;;;5019678;28;20048;-72
2023/12/06 04:03:12;;;;;;;0.50;0.50;;;3.40;99.90;;;;;;5015377;28;20037;-72
2023/12/06 04:05:41;;;;;;;1.25;1.17;;;3.30;99.90;;;;;;5025919;28;20120;-72
2023/12/06 04:08:07;;;;;;;2.17;1.10;;;3.40;99.90;;;;;;5013010;28;20040;-73
2023/12/06 04:10:32;;;;;;;0.32;0.32;;;3.30;99.90;;;;;;5027469;28;20037;-72
2023/12/06 04:12:58;;;;;;;2.83;0.80;;;3.20;99.90;;;;;;5014434;28;21760;-72
2023/12/06 04:15:24;;;;;;;1.75;1.27;;;3.20;99.90;;;;;;5018891;28;20500;-73
2023/12/06 04:17:50;;;;;;;0.85;0.70;;;3.20;99.90;;;;;;5029990;28;20116;-73
2023/12/06 04:20:15;;;;;;;0.80;0.52;;;3.20;99.90;;;;;;5012639;28;20022;-72
2023/12/06 04:22:41;;;;;;;1.17;0.82;;;3.20;99.90;;;;;;5024488;28;20036;-73
2023/12/06 04:25:07;;;;;;;0.20;0.20;;;3.30;99.90;;;;;;5016283;28;20037;-73
2023/12/06 04:27:33;;;;;;;1.08;0.95;;;3.30;99.90;;;;;;5023008;28;20029;-72
2023/12/06 04:29:59;;;;;;;1.88;1.33;;;3.20;99.90;;;;;;5015063;28;20029;-72
2023/12/06 04:32:25;;;;;;;1.13;1.02;;;3.20;99.90;;;;;;5022481;28;20029;-72
2023/12/06 04:34:55;;;;;;;0.55;0.55;;;3.20;99.90;;;;;;5014714;28;20025;-71
2023/12/06 04:37:20;;;;;;;9.15;0.77;;;3.10;99.90;;;;;;5026330;28;20390;-72
2023/12/06 04:39:46;;;;;;;1.48;0.77;;;3.10;99.90;;;;;;5012727;28;20040;-72
2023/12/06 04:42:14;;;;;;;1.35;1.25;;;3.10;99.90;;;;;;5026262;28;20025;-72
2023/12/06 04:44:40;;;;;;;0.65;0.63;;;3.00;99.90;;;;;;5011146;28;20036;-72
2023/12/06 04:47:05;;;;;;;0.70;0.52;;;3.00;99.90;;;;;;5022538;28;20029;-72
2023/12/06 04:49:31;;;;;;;0.50;0.50;;;3.00;99.90;;;;;;5012885;28;20476;-72
2023/12/06 04:51:57;;;;;;;0.52;0.52;;;2.90;99.90;;;;;;5024242;28;20410;-72
2023/12/06 04:54:24;;;;;;;1.55;0.85;;;2.90;99.90;;;;;;5022870;28;20045;-72
2023/12/06 04:56:50;;;;;;;3.20;2.42;;;2.80;99.90;;;;;;5030345;28;20724;-73
2023/12/06 04:59:16;;;;;;;3.72;1.42;;;2.80;99.90;;;;;;5025420;28;20077;-73
2023/12/06 05:01:43;;;;;;;1.63;1.52;;;2.70;99.90;;;;;;5018495;28;20534;-73
2023/12/06 05:04:10;;;;;;;0.82;0.80;;;2.70;99.90;;;;;;5025267;28;20074;-72
2023/12/06 05:06:36;;;;;;;1.60;0.70;;;2.70;99.90;;;;;;5014614;28;20025;-73
2023/12/06 05:09:04;;;;;;;0.30;0.30;;;2.70;99.90;;;;;;5029833;28;20051;-73
2023/12/06 05:11:30;;;;;;;1.35;0.93;;;2.70;99.90;;;;;;5020738;28;20059;-72
2023/12/06 05:13:56;;;;;;;1.05;1.02;;;2.70;99.90;;;;;;5012571;28;20116;-73
2023/12/06 05:16:22;;;;;;;0.82;0.70;;;2.70;99.90;;;;;;5021093;28;20116;-73
2023/12/06 05:18:48;;;;;;;3.03;0.98;;;2.70;99.90;;;;;;5031116;28;20919;-73
2023/12/06 05:21:13;;;;;;;1.15;0.90;;;2.60;99.90;;;;;;5020442;28;20123;-73
2023/12/06 05:23:39;;;;;;;0.73;0.73;;;2.60;99.90;;;;;;5032530;28;20041;-73
2023/12/06 05:26:05;;;;;;;0.93;0.65;;;2.50;99.90;;;;;;5019608;28;20026;-72
2023/12/06 05:28:30;;;;;;;1.88;1.10;;;2.50;99.90;;;;;;5029487;28;20029;-72
2023/12/06 05:30:56;;;;;;;1.30;1.05;;;2.40;99.90;;;;;;5017688;28;20029;-71
2023/12/06 05:33:22;;;;;;;0.82;0.38;;;2.40;99.90;;;;;;5028218;28;20029;-72
2023/12/06 05:35:47;;;;;;;4.72;1.05;;;2.40;99.90;;;;;;5020222;28;20030;-73
2023/12/06 05:38:13;;;;;;;0.57;0.57;;;2.30;99.90;;;;;;5029792;28;20038;-72
2023/12/06 05:40:39;;;;;;;1.13;1.13;;;2.40;99.90;;;;;;5024413;28;20033;-71
2023/12/06 05:43:05;;;;;;;1.23;0.60;;;2.40;99.90;;;;;;5018716;28;20037;-72
2023/12/06 05:45:31;;;;;;;1.98;1.67;;;2.40;99.90;;;;;;5027766;28;20040;-72
2023/12/06 05:47:56;;;;;;;0.70;0.70;;;2.40;99.90;;;;;;5017320;28;20030;-72
2023/12/06 05:50:22;;;;;;;3.53;1.08;;;2.30;99.90;;;;;;5031743;28;20033;-72
2023/12/06 05:52:49;;;;;;;3.15;0.70;;;2.30;99.90;;;;;;5021263;28;20370;-72
2023/12/06 05:55:16;;;;;;;1.45;0.60;;;2.30;99.90;;;;;;5030195;28;20137;-72
2023/12/06 05:57:42;;;;;;;1.17;1.13;;;2.20;99.90;;;;;;5018597;28;20037;-72
2023/12/06 06:00:12;;;;;;;1.55;1.45;;;2.10;99.90;;;;;;5026739;28;20041;-73
2023/12/06 06:02:39;;;;;;;0.60;0.60;;;2.10;99.90;;;;;;5016142;28;21681;-73
2023/12/06 06:05:05;;;;;;;0.45;0.45;;;2.00;99.90;;;;;;5029849;28;20409;-73
2023/12/06 06:07:32;;;;;;;4.47;1.83;;;2.00;99.90;;;;;;5014033;28;20033;-73
2023/12/06 06:09:57;;;;;;;1.90;0.85;;;1.90;99.90;;;;;;5033412;28;20040;-72
2023/12/06 06:12:23;;;;;;;1.23;1.13;;;1.80;99.90;;;;;;5015801;28;20453;-73
2023/12/06 06:14:49;;;;;;;1.90;1.30;;;1.60;99.90;;;;;;5022969;28;20030;-73
2023/12/06 06:17:14;;;;;;;0.30;0.30;;;1.40;99.90;;;;;;5015862;28;20045;-73
2023/12/06 06:19:40;;;;;;;1.17;0.75;;;1.40;99.90;;;;;;5017491;28;20034;-73
2023/12/06 06:22:06;;;;;;;0.50;0.50;;;1.40;99.90;;;;;;5023482;28;20116;-73
2023/12/06 06:24:31;;;;;;;0.73;0.73;;;1.50;99.90;;;;;;5016396;28;20057;-73
2023/12/06 06:26:57;;;;;;;0.63;0.40;;;1.50;99.90;;;;;;5024400;28;20086;-73
2023/12/06 06:29:23;;;;;;;0.43;0.43;;;1.60;99.90;;;;;;5007534;28;20041;-72
2023/12/06 06:31:48;;;;;;;0.30;0.30;;;1.60;99.90;;;;;;5026727;28;20041;-72
2023/12/06 06:34:14;;;;;;;1.95;1.08;;;1.50;99.90;;;;;;5013378;28;20042;-71
2023/12/06 06:36:40;;;;;;;1.27;1.13;;;1.50;99.90;;;;;;5026612;28;20043;-71
2023/12/06 06:39:05;;;;;;;1.40;1.30;;;1.40;99.90;;;;;;5016583;28;20497;-72
2023/12/06 06:41:31;;;;;;;0.82;0.82;;;1.40;99.90;;;;;;5024766;28;20068;-72
2023/12/06 06:43:56;;;;;;;0.73;0.68;;;1.30;99.90;;;;;;5016866;28;20035;-73
2023/12/06 06:46:23;;;;;;;0.63;0.63;;;1.20;99.90;;;;;;5028346;28;20037;-71
2023/12/06 06:48:49;;;;;;;0.63;0.60;;;1.20;99.90;;;;;;5013359;28;20021;-72
2023/12/06 06:51:14;;;;;;;0.85;0.85;;;1.10;99.90;;;;;;5028085;28;21606;-72
2023/12/06 06:53:40;;;;;;;2.05;0.75;;;1.00;99.90;;;;;;5012346;28;20037;-73
2023/12/06 06:56:06;;;;;;;0.38;0.38;;;1.00;99.90;;;;;;5030891;28;20470;-73
2023/12/06 06:58:31;;;;;;;1.00;0.88;;;1.00;99.90;;;;;;5017992;28;20037;-72
2023/12/06 07:00:59;;;;;;;1.67;1.45;;;1.00;99.90;;;;;;5020982;28;20509;-72
2023/12/06 07:03:25;;;;;;;6.10;1.15;;;1.00;99.90;;;;;;5019228;28;20409;-72
2023/12/06 07:05:50;;;;;;;1.52;1.35;;;0.90;99.90;;;;;;5007172;28;20021;-73
2023/12/06 07:08:16;;;;;;;0.65;0.43;;;0.90;99.90;;;;;;5034120;28;20407;-71
2023/12/06 07:10:45;;;;;;;0.63;0.55;;;0.80;99.90;;;;;;5046544;28;20111;-73
2023/12/06 07:13:10;;;;;;;0.60;0.60;;;0.70;99.90;;;;;;5033422;28;20025;-72
2023/12/06 07:15:36;;;;;;;2.28;1.73;;;0.70;99.90;;;;;;5010475;28;20270;-73
2023/12/06 07:18:02;;;;;;;1.50;0.63;;;0.70;99.90;;;;;;5022276;28;20481;-72
2023/12/06 07:20:28;;;;;;;0.82;0.82;;;0.80;99.90;;;;;;5013247;28;20345;-73
2023/12/06 07:22:55;;;;;;;2.28;1.02;;;0.90;99.90;;;;;;5025631;28;20117;-72
2023/12/06 07:25:20;;;;;;;1.33;1.25;;;0.90;99.90;;;;;;5019185;28;20027;-71
2023/12/06 07:27:46;;;;;;;1.17;1.08;;;0.90;99.90;;;;;;5021449;28;20040;-71
2023/12/06 07:30:16;;;;;;;0.38;0.38;;;0.90;99.90;;;;;;5014469;28;20041;-73
2023/12/06 07:32:42;;;;;;;0.50;0.50;;;0.90;99.90;;;;;;5026159;28;20037;-72
2023/12/06 07:35:08;;;;;;;2.15;1.15;;;0.90;99.90;;;;;;5011498;28;20033;-72
2023/12/06 07:37:34;;;;;;;1.13;1.02;;;0.90;99.90;;;;;;5024390;28;20401;-73
2023/12/06 07:39:59;;;;;;;2.58;1.17;;;0.80;99.90;;;;;;5015866;28;20037;-73
2023/12/06 07:42:25;;;;;;;0.80;0.80;;;0.80;99.90;;;;;;5023266;28;20029;-70
2023/12/06 07:44:52;;;;;;;1.35;1.25;;;0.90;99.90;;;;;;5023978;28;20402;-72
2023/12/06 07:47:17;;;;;;;7.43;1.67;;;0.90;99.90;;;;;;5013245;28;20250;-71
2023/12/06 07:49:43;;;;;;;4.75;1.50;;;0.90;99.90;;;;;;5024075;28;20021;-71
2023/12/06 07:52:09;;;;;;;2.83;2.13;;;0.90;99.90;;;;;;5009374;28;20051;-72
2023/12/06 07:54:34;;;;;;;0.80;0.80;;;0.90;99.90;;;;;;5020121;28;20044;-72
2023/12/06 07:57:00;;;;;;;1.45;1.13;;;0.90;99.90;;;;;;5008928;28;20145;-72
2023/12/06 07:59:26;;;;;;;3.00;0.65;;;0.80;99.90;;;;;;5026795;28;20471;-72
2023/12/06 08:01:52;;;;;;;2.42;2.17;;;0.90;99.90;;;;;;5007395;28;20068;-72
2023/12/06 08:04:18;;;;;;;2.28;0.73;;;0.90;99.90;;;;;;5026374;28;20766;-72
2023/12/06 08:06:43;;;;;;;1.95;1.60;;;0.90;99.90;;;;;;5006697;28;20083;-71
2023/12/06 08:09:12;;;;;;;0.47;0.47;;;1.00;99.90;;;;;;5021311;28;20079;-72
2023/12/06 08:11:38;;;;;;;0.95;0.90;;;1.00;99.90;;;;;;5010505;28;20033;-72
2023/12/06 08:14:04;;;;;;;1.17;1.00;;;1.10;99.90;;;;;;5019630;28;20567;-72
2023/12/06 08:16:29;;;;;;;3.50;1.70;;;1.10;99.90;;;;;;5013015;28;20033;-73
2023/12/06 08:18:55;;;;;;;1.23;0.73;;;1.10;99.90;;;;;;5018723;28;20108;-74
2023/12/06 08:21:20;;;;;;;1.30;1.20;;;1.20;99.90;;;;;;5007692;28;20528;-70
2023/12/06 08:23:47;;;;;;;1.05;0.93;;;1.20;99.90;;;;;;5023823;28;20090;-72
2023/12/06 08:26:13;;;;;;;2.95;2.25;;;1.20;99.90;;;;;;5021354;28;20642;-72
2023/12/06 08:28:39;;;;;;;19.60;1.55;;;1.30;99.90;;;;;;5008312;28;20037;-72
2023/12/06 08:31:05;;;;;;;1.45;1.15;;;1.30;99.90;;;;;;5021384;28;20044;-72
2023/12/06 08:33:31;;;;;;;2.47;1.42;;;1.30;99.90;;;;;;5013272;28;20072;-72
2023/12/06 08:35:56;;;;;;;1.02;1.02;;;1.30;99.90;;;;;;5021466;28;20629;-73
2023/12/06 08:38:22;;;;;;;2.45;2.22;;;1.30;99.90;;;;;;5008503;28;20048;-74
2023/12/06 08:40:48;;;;;;;0.95;0.95;;;1.30;99.90;;;;;;5012212;28;20041;-72
2023/12/06 08:43:13;;;;;;;0.63;0.60;;;1.40;99.90;;;;;;5006037;28;20060;-71
2023/12/06 08:45:39;;;;;;;4.43;2.20;;;1.40;99.90;;;;;;5015849;28;20498;-72
2023/12/06 08:48:06;;;;;;;1.63;1.33;;;1.40;99.90;;;;;;5002355;28;20061;-72
2023/12/06 08:50:31;;;;;;;6.60;0.73;;;1.40;99.90;;;;;;5015708;28;20030;-73
2023/12/06 08:52:57;;;;;;;2.88;1.67;;;1.40;99.90;;;;;;5005501;28;20091;-73
2023/12/06 08:55:23;;;;;;;1.30;1.20;;;1.50;99.90;;;;;;5010581;28;20050;-72
2023/12/06 08:57:50;;;;;;;0.60;0.60;;;1.50;99.90;;;;;;5005384;28;20037;-73
2023/12/06 09:00:16;;;;;;;1.20;1.10;;;1.60;99.90;;;;;;5012119;28;20045;-73
2023/12/06 09:02:42;;;;;;;5.15;2.50;;;1.60;99.90;;;;;;5001862;28;20029;-71
2023/12/06 09:05:11;;;;;;;1.65;1.55;;;1.70;99.90;;;;;;5010264;28;20036;-71
2023/12/06 09:07:38;;;;;;;3.80;1.45;;;1.70;99.90;;;;;;5012929;28;20056;-71
2023/12/06 09:10:04;;;;;;;1.58;1.45;;;1.80;99.90;;;;;;5011735;28;20526;-70
2023/12/06 09:12:31;;;;;;;1.42;1.33;;;1.90;99.90;;;;;;5020657;28;20033;-71
2023/12/06 09:14:56;;;;;;;3.20;2.00;;;1.90;99.90;;;;;;5006130;28;21482;-72
2023/12/06 09:17:22;;;;;;;1.85;1.73;;;2.00;99.90;;;;;;5020136;28;20040;-70
2023/12/06 09:19:48;;;;;;;1.38;1.30;;;2.10;99.90;;;;;;5011838;28;20109;-70
2023/12/06 09:22:15;;;;;;;1.58;1.38;;;2.10;99.90;;;;;;5018481;28;20804;-72
2023/12/06 09:24:43;;;;;;;1.30;1.20;;;2.20;99.90;;;;;;5013787;28;20104;-72
2023/12/06 09:27:09;;;;;;;2.53;2.30;;;2.40;99.90;;;;;;5021605;28;20072;-72
2023/12/06 09:29:34;;;;;;;2.10;1.65;;;2.40;99.90;;;;;;5011904;28;20465;-71
2023/12/06 09:32:00;;;;;;;0.50;0.50;;;2.60;99.90;;;;;;5019148;28;20409;-72
2023/12/06 09:34:26;;;;;;;0.88;0.88;;;2.70;99.90;;;;;;5006796;28;20025;-71
2023/12/06 09:36:51;;;;;;;0.38;0.38;;;2.80;99.90;;;;;;5021315;28;20036;-72
2023/12/06 09:39:20;;;;;;;1.80;1.05;;;2.90;99.90;;;;;;5012387;28;20124;-72
2023/12/06 09:41:46;;;;;;;1.55;1.45;;;3.20;99.90;;;;;;5017014;28;20051;-72
2023/12/06 09:44:15;;;;;;;0.98;0.95;;;3.30;99.90;;;;;;5010203;28;20033;-72
2023/12/06 09:46:42;;;;;;;1.07;1.00;;;3.50;99.90;;;;;;5021778;28;20070;-73
2023/12/06 09:49:11;;;;;;;1.50;1.40;;;3.60;99.90;;;;;;5012876;28;20037;-72
2023/12/06 09:51:37;;;;;;;2.33;1.63;;;3.80;99.90;;;;;;5021175;28;20035;-75
2023/12/06 09:54:03;;;;;;;1.05;1.02;;;3.80;99.90;;;;;;5022269;28;20365;-72
2023/12/06 09:56:32;;;;;;;2.45;1.25;;;4.00;99.90;;;;;;5011674;28;20035;-73
2023/12/06 09:58:57;;;;;;;0.77;0.77;;;4.10;99.90;;;;;;5019357;28;20124;-72
2023/12/06 10:01:26;;;;;;;1.75;1.27;;;4.20;99.90;;;;;;5007141;28;20040;-72
2023/12/06 10:03:51;;;;;;;1.40;1.30;;;4.30;99.90;;;;;;5020759;28;20148;-71
2023/12/06 10:06:17;;;;;;;1.63;1.05;;;4.50;99.90;;;;;;5011602;28;20481;-74
2023/12/06 10:08:48;;;;;;;0.52;0.52;;;4.60;99.90;;;;;;5008832;28;20049;-74
2023/12/06 10:11:14;;;;;;;1.60;1.13;;;4.70;99.90;;;;;;5000018;28;20048;-73
2023/12/06 10:13:41;;;;;;;0.95;0.95;;;4.70;99.90;;;;;;5011893;28;20029;-74
2023/12/06 10:16:20;;;;;;;1.15;1.08;;;4.80;99.90;;;;;;5004173;28;20041;-73
2023/12/06 10:18:47;;;;;;;4.10;1.17;;;4.90;99.90;;;;;;5014416;28;20141;-74
2023/12/06 10:21:13;;;;;;;1.92;1.10;;;4.90;99.90;;;;;;5003040;28;20045;-76
2023/12/06 10:23:38;;;;;;;1.10;1.10;;;4.90;99.90;;;;;;5012832;28;20162;-75
2023/12/06 10:26:05;;;;;;;1.02;0.93;;;4.90;99.90;;;;;;5002840;28;20086;-75
2023/12/06 10:28:35;;;;;;;0.88;0.88;;;5.00;99.90;;;;;;5009034;28;20029;-75
2023/12/06 10:31:02;;;;;;;1.55;1.27;;;5.10;99.90;;;;;;5008966;28;20033;-74
2023/12/06 10:33:30;;;;;;;5.22;2.00;;;5.10;99.90;;;;;;5013627;28;20033;-75
2023/12/06 10:36:00;;;;;;;3.25;1.88;;;5.20;99.90;;;;;;4999439;28;20140;-72
2023/12/06 10:38:28;;;;;;;1.98;1.45;;;5.30;99.90;;;;;;5014773;28;20045;-73
2023/12/06 10:40:55;;;;;;;5.75;1.50;;;5.40;99.90;;;;;;5006568;28;20482;-73
2023/12/06 10:43:23;;;;;;;3.22;1.88;;;5.40;99.90;;;;;;5011187;28;20029;-72
2023/12/06 10:45:51;;;;;;;0.80;0.80;;;5.40;99.90;;;;;;5014330;28;20037;-73
2023/12/06 10:48:17;;;;;;;0.70;0.70;;;5.30;99.90;;;;;;5019957;28;20866;-74
2023/12/06 10:50:44;;;;;;;1.52;1.38;;;5.30;99.90;;;;;;5038552;28;20044;-72
2023/12/06 10:53:14;;;;;;;1.05;1.02;;;5.30;99.90;;;;;;5007079;28;20064;-72
2023/12/06 10:55:41;;;;;;;13.45;1.52;;;5.30;99.90;;;;;;5004482;28;20513;-72
2023/12/06 10:58:08;;;;;;;3.40;1.38;;;5.40;99.90;;;;;;5002763;28;20137;-72
2023/12/06 11:00:35;;;;;;;17.40;1.60;;;5.60;99.90;;;;;;5010577;28;20030;-72
2023/12/06 11:03:01;;;;;;;1.00;0.68;;;5.70;99.90;;;;;;4998728;28;20026;-72
2023/12/06 11:05:30;;;;;;;1.27;1.17;;;5.80;99.90;;;;;;5006699;28;20109;-72
2023/12/06 11:08:04;;;;;;;4.38;1.80;;;5.70;99.90;;;;;;4994700;28;20387;-73
2023/12/06 11:10:55;;;;;;;2.58;0.65;;;5.80;99.90;;;;;;5009539;28;20041;-73
2023/12/06 11:13:42;;;;;;;0.95;0.88;;;5.90;99.90;;;;;;4999934;28;20052;-73
2023/12/06 11:16:10;;;;;;;2.95;1.38;;;6.00;99.90;;;;;;5006297;28;20136;-75
2023/12/06 11:18:44;;;;;;;2.08;1.88;;;6.00;99.90;;;;;;4996324;28;20061;-74
2023/12/06 11:21:12;;;;;;;3.55;1.20;;;6.10;99.90;;;;;;5009779;28;20025;-73
2023/12/06 11:23:37;;;;;;;2.40;1.73;;;6.10;99.90;;;;;;4995050;28;20036;-72
2023/12/06 11:26:04;;;;;;;0.90;0.90;;;6.00;99.90;;;;;;5011919;28;20029;-73
2023/12/06 11:28:40;;;;;;;1.42;1.30;;;6.00;99.90;;;;;;4994114;28;20084;-74
2023/12/06 11:31:07;;;;;;;1.30;1.20;;;6.10;99.90;;;;;;5013410;28;20145;-73
2023/12/06 11:33:33;;;;;;;1.35;1.02;;;6.10;99.90;;;;;;5002092;28;20029;-71
2023/12/06 11:35:59;;;;;;;1.90;0.68;;;6.20;99.90;;;;;;5013913;28;20709;-72
2023/12/06 11:38:42;;;;;;;5.07;1.33;;;6.20;99.90;;;;;;5004846;28;20033;-72
2023/12/06 11:41:17;;;;;;;11.07;2.00;;;6.30;99.90;;;;;;5013333;28;20034;-72
2023/12/06 11:43:48;;;;;;;1.95;1.10;;;6.40;99.90;;;;;;5001591;28;20690;-71
2023/12/06 11:46:14;;;;;;;1.48;1.15;;;6.30;99.90;;;;;;5012480;28;20034;-73
2023/12/06 11:48:43;;;;;;;2.42;0.82;;;6.40;99.90;;;;;;5001423;28;20025;-73
2023/12/06 11:51:19;;;;;;;2.53;1.42;;;6.40;99.90;;;;;;5013048;28;20037;-71
2023/12/06 11:53:45;;;;;;;9.95;1.75;;;6.40;99.90;;;;;;5003936;28;20187;-72
2023/12/06 11:56:11;;;;;;;1.95;1.77;;;6.50;99.90;;;;;;5011217;28;20132;-72
2023/12/06 11:58:37;;;;;;;1.45;0.82;;;6.40;99.90;;;;;;5003439;28;20032;-72
2023/12/06 12:01:04;;;;;;;1.25;1.00;;;6.50;99.90;;;;;;5008044;28;20690;-70
2023/12/06 12:03:31;;;;;;;1.30;0.93;;;6.60;99.90;;;;;;5013730;28;20034;-71
2023/12/06 12:05:58;;;;;;;1.90;1.13;;;6.70;99.90;;;;;;5015811;28;20191;-72
2023/12/06 12:08:24;;;;;;;3.08;1.05;;;6.70;99.90;;;;;;5011283;28;20037;-73
2023/12/06 12:10:50;;;;;;;0.70;0.70;;;6.70;99.90;;;;;;5011484;28;20063;-73
2023/12/06 12:13:18;;;;;;;1.05;0.95;;;6.70;99.90;;;;;;5022365;28;20116;-71
2023/12/06 12:16:01;;;;;;;0.63;0.63;;;6.60;99.90;;;;;;5005393;28;20033;-71
2023/12/06 12:18:28;;;;;;;3.97;1.25;;;6.60;99.90;;;;;;5016371;28;20124;-70
2023/12/06 12:20:55;;;;;;;1.17;0.93;;;6.60;99.90;;;;;;5001927;28;20044;-70
2023/12/06 12:23:21;;;;;;;1.05;0.82;;;6.70;99.90;;;;;;5013616;28;20037;-71
2023/12/06 12:25:49;;;;;;;2.40;0.55;;;6.70;99.90;;;;;;5011111;28;20029;-69
2023/12/06 12:28:18;;;;;;;0.30;0.30;;;6.80;99.90;;;;;;5019691;28;20064;-72
2023/12/06 12:30:46;;;;;;;0.68;0.68;;;6.90;99.90;;;;;;5011247;28;20029;-72
2023/12/06 12:33:14;;;;;;;4.22;0.93;;;7.00;99.90;;;;;;5021932;28;20047;-71
2023/12/06 12:35:41;;;;;;;6.07;1.30;;;7.20;99.90;;;;;;5007248;28;20425;-71
2023/12/06 12:38:08;;;;;;;0.73;0.70;;;7.20;99.90;;;;;;5019159;28;20080;-71
2023/12/06 12:40:33;;;;;;;2.45;1.98;;;7.20;99.90;;;;;;5013025;28;20037;-70
2023/12/06 12:42:59;;;;;;;1.60;1.48;;;7.20;99.90;;;;;;5024145;28;20072;-69
2023/12/06 12:45:26;;;;;;;1.50;1.30;;;7.30;99.90;;;;;;5014386;28;21649;-70
2023/12/06 12:47:53;;;;;;;1.77;1.15;;;7.30;99.90;;;;;;5022732;28;20040;-69
2023/12/06 12:50:20;;;;;;;1.20;1.13;;;7.20;99.90;;;;;;5015333;28;20396;-70
2023/12/06 12:52:47;;;;;;;2.05;1.17;;;7.40;99.90;;;;;;5026093;28;20033;-69
2023/12/06 12:55:16;;;;;;;5.43;1.30;;;7.30;99.90;;;;;;5014865;28;20048;-70